Helena — SCGL — position and weather

sailwx.info

Track history (hours):
 
Tides and Currents Weather Stations Pressure Air Temp Water Temp Dewpoint Dewpoint Depression Visibility Wind Speed Wind Dir Waves Ship Positions

Helena

Last reported at 2016-May-31 18:28 UTC. Time now 2016-Jun-01 07:28 UTC.
Position N 58°50' E 019°22'.

Length 169 m; draft 6.4 m.

Type: Cargo ship. MMSI: 265145000.

Date/timePositionNaut miles runAvg speedWind from/ knotsBaromVisibWave heightAir tempDewpointWater temp
2016-May-31 18:28N 58°50' E 019°22'22615.1
2016-May-31 03:26N 55°40' E 015°33'1315.0
2016-May-31 02:33N 55°34' E 015°13'1515.1
2016-May-31 01:33N 55°27' E 014°50'1514.9
2016-May-31 00:33N 55°17' E 014°30'1515.3
2016-May-30 23:33N 55°05' E 014°14'1515.5
2016-May-30 22:33N 54°57' E 013°50'3715.3
2016-May-30 20:08N 54°46' E 012°49'2314.5
2016-May-30 18:33N 54°32' E 012°18'1313.0
2016-May-30 17:33N 54°24' E 011°60'1312.9
2016-May-30 16:33N 54°17' E 011°41'1211.8
2016-May-30 15:33N 54°11' E 011°24'1210.1
2016-May-30 14:23N 54°04' E 011°07'10 0.3
2016-May-29 07:33N 53°58' E 010°54'1212.0
2016-May-29 06:33N 54°06' E 011°08'1413.8
2016-May-29 05:33N 54°14' E 011°27'1413.8
2016-May-29 04:33N 54°22' E 011°47'1313.2
2016-May-29 03:33N 54°27' E 012°08'1313.0
2016-May-29 02:33N 54°38' E 012°19'1413.7
2016-May-29 01:33N 54°46' E 012°39'3114.3
2016-May-28 23:25N 54°56' E 013°29'1315.4
2016-May-28 22:33N 55°01' E 013°50'1514.5
2016-May-28 21:33N 55°10' E 014°11'1515.2
2016-May-28 20:34N 55°21' E 014°28'1514.9
2016-May-28 19:33N 55°30' E 014°49'1515.3
2016-May-28 18:33N 55°39' E 015°12'  
2016-May-24 23:30N 60°03' E 019°20'28614.3
2016-May-24 03:28N 55°43' E 015°39'1415.9
2016-May-24 02:33N 55°36' E 015°17'1616.0
2016-May-24 01:33N 55°27' E 014°52'1615.9
2016-May-24 00:33N 55°17' E 014°31'1616.1
2016-May-23 23:33N 55°04' E 014°14'1615.7
2016-May-23 22:33N 54°57' E 013°50'3216.0
2016-May-23 20:33N 54°46' E 012°57'1615.4
2016-May-23 19:31N 54°39' E 012°33'1415.2
2016-May-23 18:33N 54°28' E 012°15'1514.8
2016-May-23 17:33N 54°21' E 011°53'1616.3
2016-May-23 16:33N 54°13' E 011°29'27 0.8
2016-May-22 06:33N 53°57' E 010°52'1010.3
2016-May-22 05:34N 54°04' E 011°04'1413.9
2016-May-22 04:33N 54°13' E 011°22'1414.1
2016-May-22 03:33N 54°20' E 011°43'1413.8
2016-May-22 02:33N 54°26' E 012°04'1313.1
2016-May-22 01:34N 54°37' E 012°17'1514.5
2016-May-22 00:34N 54°45' E 012°37'1514.5
2016-May-21 23:33N 54°51' E 013°00'2914.8
2016-May-21 21:34N 55°01' E 013°49'1514.5
2016-May-21 20:34N 55°08' E 014°11'1514.8
2016-May-21 19:34N 55°20' E 014°27'1514.8
2016-May-21 18:34N 55°29' E 014°47'  
Track history (hours):
 
Tides and Currents Weather Stations Pressure Air Temp Water Temp Dewpoint Dewpoint Depression Visibility Wind Speed Wind Dir Waves Ship Positions

Helena

Last reported at 2016-May-31 18:28 UTC. Time now 2016-Jun-01 07:28 UTC.
Position N 58°50' E 019°22'.

Length 169 m; draft 6.4 m.

Type: Cargo ship. MMSI: 265145000.

Date/timePositionNaut miles runAvg speedWind from/ knotsBaromVisibWave heightAir tempDewpointWater temp
2016-May-31 18:28N 58°50' E 019°22'22615.1
2016-May-31 03:26N 55°40' E 015°33'1315.0
2016-May-31 02:33N 55°34' E 015°13'1515.1
2016-May-31 01:33N 55°27' E 014°50'1514.9
2016-May-31 00:33N 55°17' E 014°30'1515.3
2016-May-30 23:33N 55°05' E 014°14'1515.5
2016-May-30 22:33N 54°57' E 013°50'3715.3
2016-May-30 20:08N 54°46' E 012°49'2314.5
2016-May-30 18:33N 54°32' E 012°18'1313.0
2016-May-30 17:33N 54°24' E 011°60'1312.9
2016-May-30 16:33N 54°17' E 011°41'1211.8
2016-May-30 15:33N 54°11' E 011°24'1210.1
2016-May-30 14:23N 54°04' E 011°07'10 0.3
2016-May-29 07:33N 53°58' E 010°54'1212.0
2016-May-29 06:33N 54°06' E 011°08'1413.8
2016-May-29 05:33N 54°14' E 011°27'1413.8
2016-May-29 04:33N 54°22' E 011°47'1313.2
2016-May-29 03:33N 54°27' E 012°08'1313.0
2016-May-29 02:33N 54°38' E 012°19'1413.7
2016-May-29 01:33N 54°46' E 012°39'3114.3
2016-May-28 23:25N 54°56' E 013°29'1315.4
2016-May-28 22:33N 55°01' E 013°50'1514.5
2016-May-28 21:33N 55°10' E 014°11'1515.2
2016-May-28 20:34N 55°21' E 014°28'1514.9
2016-May-28 19:33N 55°30' E 014°49'1515.3
2016-May-28 18:33N 55°39' E 015°12'  
2016-May-24 23:30N 60°03' E 019°20'28614.3
2016-May-24 03:28N 55°43' E 015°39'1415.9
2016-May-24 02:33N 55°36' E 015°17'1616.0
2016-May-24 01:33N 55°27' E 014°52'1615.9
2016-May-24 00:33N 55°17' E 014°31'1616.1
2016-May-23 23:33N 55°04' E 014°14'1615.7
2016-May-23 22:33N 54°57' E 013°50'3216.0
2016-May-23 20:33N 54°46' E 012°57'1615.4
2016-May-23 19:31N 54°39' E 012°33'1415.2
2016-May-23 18:33N 54°28' E 012°15'1514.8
2016-May-23 17:33N 54°21' E 011°53'1616.3
2016-May-23 16:33N 54°13' E 011°29'27 0.8
2016-May-22 06:33N 53°57' E 010°52'1010.3
2016-May-22 05:34N 54°04' E 011°04'1413.9
2016-May-22 04:33N 54°13' E 011°22'1414.1
2016-May-22 03:33N 54°20' E 011°43'1413.8
2016-May-22 02:33N 54°26' E 012°04'1313.1
2016-May-22 01:34N 54°37' E 012°17'1514.5
2016-May-22 00:34N 54°45' E 012°37'1514.5
2016-May-21 23:33N 54°51' E 013°00'2914.8
2016-May-21 21:34N 55°01' E 013°49'1514.5
2016-May-21 20:34N 55°08' E 014°11'1514.8
2016-May-21 19:34N 55°20' E 014°27'1514.8
2016-May-21 18:34N 55°29' E 014°47'  

Dump ship's entire track history